Evans, Illinois
Current Conditions -  °F | °C
As of 8:35 AM on Monday 20 Oct 2014 (Local Time) from KC75 Reporting Station
Clear Clear  
Wind Chill: 51°   Ceiling: Unl
Heat Index: 51°   Visibility: 10mi
Dew Point: 45°   Wind: 7mph
Humidity: 79%   Direction: 290°WNW
Pressure: 29.89"   Gusts: NA
Location:  41.0632°N, 89.0208°W
Report Text: KC75 201335Z AUTO 29006KT 10SM CLR 11/07 A2989 RMK AO2 T01050070
Loading
Personal Weather Stations






























Interactive Weather Map
Tropical Storm Tracking
New forecast layout! Learn more

10-Day Weather Forecast

Advertisements
Track Severe Weather on mobile